createdAt,value
2018-03-19T00:02:21.669Z,26.00
2018-03-19T00:04:48.700Z,26.00
2018-03-19T00:07:15.720Z,25.90
2018-03-19T00:09:43.478Z,25.90
2018-03-19T00:12:10.690Z,26.00
2018-03-19T00:14:37.695Z,25.90
2018-03-19T00:17:04.717Z,25.90
2018-03-19T00:19:31.726Z,25.90
2018-03-19T00:21:58.748Z,25.80
2018-03-19T00:24:26.556Z,25.90
2018-03-19T00:26:53.554Z,25.90
2018-03-19T00:29:20.561Z,25.90
2018-03-19T00:31:47.590Z,26.30
2018-03-19T00:34:14.595Z,25.90
2018-03-19T00:36:42.579Z,25.90
2018-03-19T00:39:09.579Z,25.80
2018-03-19T00:41:36.563Z,25.90
2018-03-19T00:44:03.738Z,25.80
2018-03-19T00:46:30.809Z,25.90
2018-03-19T00:48:57.829Z,25.80
2018-03-19T00:51:24.863Z,25.80
2018-03-19T00:53:51.940Z,25.80
2018-03-19T00:56:18.961Z,25.80
2018-03-19T00:58:45.975Z,25.80
2018-03-19T01:01:13.750Z,26.30
2018-03-19T01:03:41.548Z,25.80
2018-03-19T01:06:08.579Z,25.70
2018-03-19T01:08:35.603Z,25.80
2018-03-19T01:11:02.611Z,25.80
2018-03-19T01:13:29.751Z,25.80
2018-03-19T01:15:56.740Z,25.80
2018-03-19T01:18:25.341Z,25.70
2018-03-19T01:20:53.164Z,25.70
2018-03-19T01:23:20.219Z,25.70
2018-03-19T01:25:47.214Z,25.70
2018-03-19T01:28:14.230Z,25.70
2018-03-19T01:30:41.237Z,25.80
2018-03-19T01:33:08.388Z,25.80
2018-03-19T01:35:35.391Z,25.80
2018-03-19T01:38:02.398Z,25.80
2018-03-19T01:40:29.398Z,25.70
2018-03-19T01:42:57.209Z,25.70
2018-03-19T01:45:24.207Z,25.70
2018-03-19T01:47:51.211Z,25.70
2018-03-19T01:50:18.237Z,25.70
2018-03-19T01:52:45.369Z,25.70
2018-03-19T01:55:12.393Z,25.70
2018-03-19T01:57:39.406Z,25.60
2018-03-19T02:00:06.502Z,25.60
2018-03-19T02:02:33.576Z,25.70
2018-03-19T02:05:00.557Z,25.70
2018-03-19T02:07:27.559Z,25.60
2018-03-19T02:09:54.561Z,25.70
2018-03-19T02:12:21.755Z,26.20
2018-03-19T02:14:48.757Z,25.30
2018-03-19T02:17:16.522Z,25.60
2018-03-19T02:19:43.513Z,25.60
2018-03-19T02:22:10.564Z,25.60
2018-03-19T02:24:37.554Z,25.70
2018-03-19T02:27:04.554Z,25.60
2018-03-19T02:29:31.553Z,25.60
2018-03-19T02:31:58.559Z,25.60
2018-03-19T02:34:25.553Z,25.60
2018-03-19T02:36:52.537Z,25.50
2018-03-19T02:39:19.538Z,25.60
2018-03-19T02:41:46.543Z,25.60
2018-03-19T02:44:13.611Z,25.60
2018-03-19T02:46:40.599Z,25.60
2018-03-19T02:49:07.627Z,25.60
2018-03-19T02:51:34.632Z,25.50
2018-03-19T02:54:01.767Z,25.60
2018-03-19T02:56:28.797Z,25.50
2018-03-19T02:58:55.847Z,25.60
2018-03-19T03:01:22.841Z,25.50
2018-03-19T03:03:49.959Z,25.50
2018-03-19T03:06:16.966Z,25.50
2018-03-19T03:08:43.973Z,26.00
2018-03-19T03:11:10.973Z,25.50
2018-03-19T03:13:38.766Z,25.50
2018-03-19T03:16:05.752Z,25.50
2018-03-19T03:18:32.740Z,25.50
2018-03-19T03:20:59.754Z,25.40
2018-03-19T03:23:26.968Z,25.50
2018-03-19T03:25:53.975Z,25.50
2018-03-19T03:28:20.972Z,25.50
2018-03-19T03:30:47.974Z,25.50
2018-03-19T03:33:15.767Z,25.50
2018-03-19T03:35:42.768Z,25.50
2018-03-19T03:38:09.763Z,25.50
2018-03-19T03:40:36.805Z,25.40
2018-03-19T03:43:03.957Z,25.40
2018-03-19T03:45:30.963Z,25.40
2018-03-19T03:47:57.975Z,25.40
2018-03-19T03:50:24.986Z,25.40
2018-03-19T03:52:52.150Z,25.40
2018-03-19T03:55:19.170Z,25.40
2018-03-19T03:57:46.175Z,25.40
2018-03-19T04:00:13.181Z,25.40
2018-03-19T04:02:40.330Z,25.40
2018-03-19T04:05:07.329Z,25.40
2018-03-19T04:07:34.342Z,25.40
2018-03-19T04:10:01.402Z,25.40
2018-03-19T04:12:28.521Z,25.30
2018-03-19T04:14:55.574Z,25.40
2018-03-19T04:17:22.570Z,25.40
2018-03-19T04:19:49.561Z,25.40
2018-03-19T04:22:16.875Z,25.40
2018-03-19T04:24:43.875Z,25.50
2018-03-19T04:27:11.002Z,25.50
2018-03-19T04:29:38.001Z,25.50
2018-03-19T04:32:05.112Z,25.50
2018-03-19T04:34:32.126Z,25.60
2018-03-19T04:36:59.887Z,25.50
2018-03-19T04:39:27.710Z,26.10
2018-03-19T04:41:55.012Z,25.50
2018-03-19T04:44:22.788Z,25.50
2018-03-19T04:46:49.779Z,25.50
2018-03-19T04:49:16.789Z,25.60
2018-03-19T04:51:43.801Z,25.50
2018-03-19T04:54:12.132Z,26.10
2018-03-19T04:56:39.126Z,25.50
2018-03-19T04:59:06.935Z,25.60
2018-03-19T05:01:34.071Z,25.60
2018-03-19T05:04:01.232Z,25.60
2018-03-19T05:06:28.233Z,25.60
2018-03-19T05:08:55.288Z,25.60
2018-03-19T05:11:22.287Z,25.60
2018-03-19T05:13:49.422Z,25.60
2018-03-19T05:16:16.433Z,25.60
2018-03-19T05:18:43.420Z,25.70
2018-03-19T05:21:10.447Z,25.70
2018-03-19T05:23:38.237Z,25.70
2018-03-19T05:26:05.240Z,25.70
2018-03-19T05:28:32.315Z,26.30
2018-03-19T05:30:59.324Z,25.70
2018-03-19T05:33:26.452Z,26.20
2018-03-19T05:35:53.440Z,25.80
2018-03-19T05:38:20.449Z,25.80
2018-03-19T05:40:47.460Z,25.80
2018-03-19T05:43:14.637Z,25.90
2018-03-19T05:45:41.628Z,25.80
2018-03-19T05:48:08.642Z,25.70
2018-03-19T05:50:35.636Z,25.70
2018-03-19T05:53:02.796Z,25.70
2018-03-19T05:55:29.822Z,25.70
2018-03-19T05:57:56.812Z,25.70
2018-03-19T06:00:23.819Z,25.70
2018-03-19T06:02:51.604Z,25.60
2018-03-19T06:05:18.600Z,25.60
2018-03-19T06:07:46.370Z,25.60
2018-03-19T06:10:13.361Z,25.60
2018-03-19T06:12:40.446Z,25.60
2018-03-19T06:15:08.028Z,25.60
2018-03-19T06:17:35.241Z,25.60
2018-03-19T06:20:02.257Z,25.80
2018-03-19T06:22:29.424Z,25.60
2018-03-19T06:24:56.418Z,25.40
2018-03-19T06:27:23.672Z,25.50
2018-03-19T06:29:51.452Z,26.10
2018-03-19T06:32:19.468Z,25.30
2018-03-19T06:34:46.492Z,25.60
2018-03-19T06:37:13.492Z,25.60
2018-03-19T06:39:40.500Z,25.60
2018-03-19T06:42:07.650Z,25.70
2018-03-19T06:44:34.933Z,25.70
2018-03-19T06:47:01.934Z,25.70
2018-03-19T06:49:28.943Z,25.70
2018-03-19T06:51:55.951Z,25.70
2018-03-19T06:54:22.945Z,25.70
2018-03-19T06:56:50.942Z,25.70
2018-03-19T06:59:17.938Z,25.70
2018-03-19T07:01:44.958Z,25.70
2018-03-19T07:04:11.954Z,25.60
2018-03-19T07:06:39.948Z,25.80
2018-03-19T07:09:06.944Z,25.60
2018-03-19T07:11:33.972Z,25.60
2018-03-19T07:14:01.138Z,25.60
2018-03-19T07:16:28.158Z,25.50
2018-03-19T07:18:55.164Z,25.50
2018-03-19T07:21:22.180Z,25.50
2018-03-19T07:23:49.298Z,25.50
2018-03-19T07:26:16.343Z,25.50
2018-03-19T07:28:43.336Z,25.50
2018-03-19T07:31:10.333Z,25.50
2018-03-19T07:33:37.499Z,25.50
2018-03-19T07:36:04.564Z,25.40
2018-03-19T07:38:31.576Z,25.50
2018-03-19T07:40:58.593Z,25.40
2018-03-19T07:43:25.869Z,25.50
2018-03-19T07:45:52.869Z,25.50
2018-03-19T07:48:19.866Z,25.50
2018-03-19T07:50:46.904Z,25.50
2018-03-19T07:53:14.701Z,25.50
2018-03-19T07:55:41.708Z,25.50
2018-03-19T07:58:08.722Z,25.60
2018-03-19T08:00:35.771Z,25.70
2018-03-19T08:03:02.878Z,25.40
2018-03-19T08:05:29.896Z,25.30
2018-03-19T08:07:56.899Z,25.40
2018-03-19T08:10:23.915Z,25.40
2018-03-19T08:12:51.082Z,25.50
2018-03-19T08:15:18.926Z,25.40
2018-03-19T08:17:45.930Z,25.40
2018-03-19T08:20:12.934Z,25.40
2018-03-19T08:22:40.093Z,25.40
2018-03-19T08:25:07.092Z,25.40
2018-03-19T08:27:34.930Z,25.40
2018-03-19T08:30:01.972Z,25.40
2018-03-19T08:32:29.114Z,25.40
2018-03-19T08:34:56.679Z,25.40
2018-03-19T08:37:23.681Z,25.40
2018-03-19T08:39:50.688Z,25.40
2018-03-19T08:42:17.921Z,25.40
2018-03-19T08:44:44.931Z,25.30
2018-03-19T08:47:12.340Z,25.40
2018-03-19T08:49:39.353Z,25.40
2018-03-19T08:52:06.502Z,25.40
2018-03-19T08:54:33.505Z,25.30
2018-03-19T08:57:00.508Z,25.30
2018-03-19T08:59:27.503Z,25.40
2018-03-19T09:01:55.282Z,25.40
2018-03-19T09:04:22.484Z,25.30
2018-03-19T09:06:50.090Z,25.30
2018-03-19T09:09:17.091Z,25.30
2018-03-19T09:11:44.124Z,25.30
2018-03-19T09:14:11.131Z,25.30
2018-03-19T09:16:38.139Z,25.30
2018-03-19T09:19:05.177Z,25.30
2018-03-19T09:21:32.165Z,25.20
2018-03-19T09:23:59.968Z,25.30
2018-03-19T09:26:26.960Z,25.30
2018-03-19T09:28:53.960Z,25.20
2018-03-19T09:31:20.970Z,25.30
2018-03-19T09:33:48.778Z,25.30
2018-03-19T09:36:15.783Z,25.30
2018-03-19T09:38:42.821Z,25.30
2018-03-19T09:41:09.815Z,25.30
2018-03-19T09:43:37.141Z,25.30
2018-03-19T09:46:04.154Z,25.30
2018-03-19T09:48:31.177Z,25.20
2018-03-19T09:50:58.212Z,25.20
2018-03-19T09:53:25.362Z,25.20
2018-03-19T09:55:52.366Z,25.30
2018-03-19T09:58:19.379Z,25.30
2018-03-19T10:00:46.384Z,25.20
2018-03-19T10:03:13.547Z,25.20
2018-03-19T10:05:40.545Z,25.20
2018-03-19T10:08:07.540Z,25.20
2018-03-19T10:10:34.542Z,25.20
2018-03-19T10:13:02.340Z,25.30
2018-03-19T10:15:29.354Z,25.20
2018-03-19T10:17:56.360Z,25.30
2018-03-19T10:20:23.364Z,25.30
2018-03-19T10:22:51.275Z,25.30
2018-03-19T10:25:18.264Z,25.30
2018-03-19T10:27:46.028Z,25.40
2018-03-19T10:30:13.033Z,25.30
2018-03-19T10:32:40.167Z,25.30
2018-03-19T10:35:07.453Z,25.20
2018-03-19T10:37:34.493Z,25.20
2018-03-19T10:40:01.524Z,25.20
2018-03-19T10:42:28.594Z,25.20
2018-03-19T10:44:55.609Z,25.20
2018-03-19T10:47:23.042Z,25.20
2018-03-19T10:49:50.264Z,25.20
2018-03-19T10:52:17.552Z,25.30
2018-03-19T10:54:44.571Z,25.30
2018-03-19T10:57:11.594Z,25.20
2018-03-19T10:59:38.592Z,25.30
2018-03-19T11:02:05.771Z,25.30
2018-03-19T11:04:32.787Z,25.30
2018-03-19T11:06:59.804Z,25.30
2018-03-19T11:09:26.812Z,25.30
2018-03-19T11:11:53.894Z,25.30
2018-03-19T11:14:20.845Z,25.20
2018-03-19T11:16:47.855Z,25.20
2018-03-19T11:19:14.855Z,25.20
2018-03-19T11:21:42.943Z,25.20
2018-03-19T11:24:09.949Z,25.20
2018-03-19T11:26:36.954Z,25.20
2018-03-19T11:29:03.962Z,25.30
2018-03-19T11:31:30.949Z,25.30
2018-03-19T11:33:58.105Z,25.20
2018-03-19T11:36:25.123Z,25.20
2018-03-19T11:38:52.125Z,25.20
2018-03-19T11:41:19.132Z,25.20
2018-03-19T11:43:46.203Z,25.20
2018-03-19T11:46:13.199Z,25.20
2018-03-19T11:48:40.209Z,25.20
2018-03-19T11:51:07.248Z,25.20
2018-03-19T11:53:34.410Z,25.20
2018-03-19T11:56:01.441Z,25.20
2018-03-19T11:58:28.444Z,25.20
2018-03-19T12:00:55.540Z,25.20
2018-03-19T12:03:22.580Z,25.20
2018-03-19T12:05:49.572Z,25.20
2018-03-19T12:08:16.588Z,25.20
2018-03-19T12:10:43.597Z,25.30
2018-03-19T12:13:10.789Z,25.40
2018-03-19T12:15:37.989Z,25.50
2018-03-19T12:18:04.983Z,25.40
2018-03-19T12:20:31.982Z,25.40
2018-03-19T12:22:59.178Z,25.40
2018-03-19T12:25:26.252Z,25.40
2018-03-19T12:27:53.337Z,25.50
2018-03-19T12:30:20.332Z,25.50
2018-03-19T12:32:47.406Z,25.50
2018-03-19T12:35:14.400Z,25.50
2018-03-19T12:37:41.396Z,25.50
2018-03-19T12:40:08.406Z,25.50
2018-03-19T12:42:35.544Z,25.50
2018-03-19T12:45:02.568Z,25.50
2018-03-19T12:47:29.579Z,25.80
2018-03-19T12:49:56.578Z,25.60
2018-03-19T12:52:23.717Z,25.30
2018-03-19T12:54:50.730Z,25.50
2018-03-19T12:57:17.748Z,25.30
2018-03-19T12:59:44.807Z,25.30
2018-03-19T13:02:12.216Z,25.30
2018-03-19T13:04:39.259Z,25.40
2018-03-19T13:07:06.297Z,25.60
2018-03-19T13:09:34.264Z,25.50
2018-03-19T13:12:01.330Z,25.50
2018-03-19T13:14:28.440Z,25.50
2018-03-19T13:16:55.476Z,25.60
2018-03-19T13:19:23.278Z,25.70
2018-03-19T13:21:50.326Z,25.70
2018-03-19T13:24:17.322Z,25.60
2018-03-19T13:26:44.319Z,25.60
2018-03-19T13:29:12.293Z,25.70
2018-03-19T13:31:39.302Z,25.60
2018-03-19T13:34:06.300Z,25.60
2018-03-19T13:36:33.300Z,25.60
2018-03-19T13:39:01.068Z,25.50
2018-03-19T13:41:28.092Z,25.50
2018-03-19T13:43:55.216Z,25.60
2018-03-19T13:46:22.263Z,25.50
2018-03-19T13:48:49.257Z,25.60
2018-03-19T13:51:16.267Z,25.60
2018-03-19T13:53:43.410Z,25.50
2018-03-19T13:56:10.419Z,25.50
2018-03-19T13:58:37.429Z,25.50
2018-03-19T14:01:04.444Z,25.60
2018-03-19T14:03:31.632Z,25.50
2018-03-19T14:05:58.828Z,25.50
2018-03-19T14:08:25.839Z,25.50
2018-03-19T14:10:52.889Z,25.50
2018-03-19T14:13:20.048Z,25.50
2018-03-19T14:15:48.042Z,25.90
2018-03-19T14:18:15.105Z,25.40
2018-03-19T14:20:42.917Z,25.30
2018-03-19T14:23:10.029Z,26.10
2018-03-19T14:25:37.037Z,25.60
2018-03-19T14:28:04.108Z,25.70
2018-03-19T14:30:31.565Z,25.70
2018-03-19T14:32:58.780Z,25.70
2018-03-19T14:35:25.828Z,25.70
2018-03-19T14:37:53.448Z,25.70
2018-03-19T14:40:21.791Z,25.70
2018-03-19T14:42:49.710Z,25.70
2018-03-19T14:45:16.741Z,25.70
2018-03-19T14:47:44.399Z,25.70
2018-03-19T14:50:11.454Z,25.70
2018-03-19T14:52:38.525Z,25.90
2018-03-19T14:55:05.525Z,25.70
2018-03-19T14:57:32.581Z,25.80
2018-03-19T14:59:59.725Z,25.70
2018-03-19T15:02:26.925Z,25.70
2018-03-19T15:04:53.979Z,25.70
2018-03-19T15:07:20.983Z,25.70
2018-03-19T15:09:48.016Z,25.80
2018-03-19T15:12:15.083Z,25.70
2018-03-19T15:14:42.124Z,25.70
2018-03-19T15:17:09.149Z,25.70
2018-03-19T15:19:36.616Z,25.70
2018-03-19T15:22:03.670Z,25.80
2018-03-19T15:24:30.699Z,25.80
2018-03-19T15:26:57.690Z,25.80
2018-03-19T15:29:24.774Z,25.80
2018-03-19T15:31:51.797Z,25.80
2018-03-19T15:34:18.786Z,25.80
2018-03-19T15:36:45.813Z,25.80
2018-03-19T15:39:13.611Z,25.80
2018-03-19T15:41:42.996Z,25.80
2018-03-19T15:44:10.807Z,25.80
2018-03-19T15:46:37.824Z,25.80
2018-03-19T15:49:04.832Z,25.70
2018-03-19T15:51:31.892Z,25.70
2018-03-19T15:53:59.005Z,25.70
2018-03-19T15:56:26.031Z,25.70
2018-03-19T15:58:53.047Z,25.70
2018-03-19T16:01:20.993Z,25.70
2018-03-19T16:03:48.209Z,25.70
2018-03-19T16:06:15.290Z,25.90
2018-03-19T16:08:42.325Z,25.70
2018-03-19T16:11:09.333Z,25.50
2018-03-19T16:13:36.384Z,25.20
2018-03-19T16:16:03.517Z,25.70
2018-03-19T16:18:30.532Z,25.70
2018-03-19T16:20:58.319Z,25.70
2018-03-19T16:23:25.394Z,25.70
2018-03-19T16:25:52.414Z,25.70
2018-03-19T16:28:19.677Z,25.60
2018-03-19T16:30:46.665Z,25.70
2018-03-19T16:33:13.787Z,25.60
2018-03-19T16:35:41.383Z,25.60
2018-03-19T16:38:08.400Z,25.60
2018-03-19T16:40:36.134Z,25.70
2018-03-19T16:43:03.203Z,25.70
2018-03-19T16:45:30.728Z,25.70
2018-03-19T16:47:58.494Z,25.70
2018-03-19T16:50:25.523Z,25.70
2018-03-19T16:52:52.620Z,25.70
2018-03-19T16:55:20.308Z,25.60
2018-03-19T16:57:47.448Z,25.40
2018-03-19T17:00:15.588Z,25.90
2018-03-19T17:02:42.658Z,25.50
2018-03-19T17:05:09.661Z,25.40
2018-03-19T17:07:36.679Z,25.50
2018-03-19T17:10:03.688Z,25.50
2018-03-19T17:12:31.447Z,25.50
2018-03-19T17:14:58.465Z,25.50
2018-03-19T17:17:26.054Z,25.50
2018-03-19T17:19:53.118Z,25.50
2018-03-19T17:22:21.709Z,25.40
2018-03-19T17:24:48.703Z,25.40
2018-03-19T17:27:15.706Z,25.40
2018-03-19T17:29:42.706Z,25.40
2018-03-19T17:32:10.497Z,25.40
2018-03-19T17:34:37.510Z,25.40
2018-03-19T17:37:04.508Z,25.40
2018-03-19T17:39:31.502Z,25.40
2018-03-19T17:41:59.281Z,25.50
2018-03-19T17:44:26.281Z,25.40
2018-03-19T17:46:53.315Z,25.40
2018-03-19T17:49:20.343Z,25.50
2018-03-19T17:51:47.345Z,25.50
2018-03-19T17:54:14.353Z,25.40
2018-03-19T17:56:41.367Z,25.00
2018-03-19T17:59:08.377Z,25.30
2018-03-19T18:01:35.385Z,25.40
2018-03-19T18:04:02.414Z,25.40
2018-03-19T18:06:29.433Z,25.40
2018-03-19T18:08:57.212Z,25.30
2018-03-19T18:11:24.242Z,25.40
2018-03-19T18:13:51.533Z,25.30
2018-03-19T18:16:18.584Z,24.80
2018-03-19T18:18:45.595Z,25.10
2018-03-19T18:21:12.604Z,25.10
2018-03-19T18:23:39.741Z,25.20
2018-03-19T18:26:06.769Z,25.20
2018-03-19T18:28:33.787Z,25.80
2018-03-19T18:31:02.298Z,25.40
2018-03-19T18:33:29.365Z,25.30
2018-03-19T18:35:57.378Z,25.40
2018-03-19T18:38:24.442Z,25.30
2018-03-19T18:40:52.537Z,25.30
2018-03-19T18:43:19.617Z,25.30
2018-03-19T18:45:46.627Z,25.20
2018-03-19T18:48:13.644Z,25.20
2018-03-19T18:50:41.375Z,25.20
2018-03-19T18:53:08.576Z,25.20
2018-03-19T18:55:35.860Z,25.20
2018-03-19T18:58:04.505Z,25.30
2018-03-19T19:00:32.292Z,25.30
2018-03-19T19:02:59.534Z,25.30
2018-03-19T19:05:27.307Z,25.50
2018-03-19T19:07:54.317Z,25.50
2018-03-19T19:10:22.557Z,25.60
2018-03-19T19:12:49.694Z,25.50
2018-03-19T19:15:16.700Z,25.30
2018-03-19T19:17:43.707Z,25.30
2018-03-19T19:20:10.760Z,25.30
2018-03-19T19:22:38.035Z,25.40
2018-03-19T19:25:07.374Z,25.40
2018-03-19T19:27:34.404Z,25.30
2018-03-19T19:30:01.475Z,25.20
2018-03-19T19:32:29.138Z,25.40
2018-03-19T19:34:56.167Z,25.40
2018-03-19T19:37:23.179Z,25.40
2018-03-19T19:39:50.246Z,25.40
2018-03-19T19:42:17.359Z,25.30
2018-03-19T19:44:44.365Z,25.30
2018-03-19T19:47:11.369Z,25.30
2018-03-19T19:49:38.379Z,25.30
2018-03-19T19:52:05.593Z,25.40
2018-03-19T19:54:32.585Z,25.40
2018-03-19T19:56:59.631Z,25.30
2018-03-19T19:59:26.641Z,25.20
2018-03-19T20:01:53.649Z,25.20
2018-03-19T20:04:20.665Z,25.30
2018-03-19T20:06:47.702Z,25.30
2018-03-19T20:09:14.705Z,25.20
2018-03-19T20:11:41.924Z,25.20
2018-03-19T20:14:08.943Z,25.20
2018-03-19T20:16:35.949Z,25.20
2018-03-19T20:19:02.994Z,25.20
2018-03-19T20:21:30.089Z,25.20
2018-03-19T20:23:57.237Z,25.20
2018-03-19T20:26:24.999Z,25.20
2018-03-19T20:28:52.053Z,25.20
2018-03-19T20:31:19.037Z,25.20
2018-03-19T20:33:46.169Z,25.20
2018-03-19T20:36:13.216Z,25.20
2018-03-19T20:38:40.271Z,25.20
2018-03-19T20:41:07.278Z,25.20
2018-03-19T20:43:34.366Z,25.20
2018-03-19T20:46:01.379Z,25.30
2018-03-19T20:48:28.393Z,25.30
2018-03-19T20:50:56.901Z,25.20
2018-03-19T20:53:23.981Z,25.20
2018-03-19T20:55:50.991Z,25.20
2018-03-19T20:58:17.981Z,25.30
2018-03-19T21:00:44.981Z,25.50
2018-03-19T21:03:12.779Z,25.40
2018-03-19T21:05:39.786Z,25.40
2018-03-19T21:08:06.800Z,25.50
2018-03-19T21:10:35.318Z,25.50
2018-03-19T21:13:02.414Z,25.40
2018-03-19T21:15:29.452Z,25.40
2018-03-19T21:17:56.465Z,25.30
2018-03-19T21:20:23.481Z,25.30
2018-03-19T21:22:50.603Z,25.30
2018-03-19T21:25:17.609Z,25.30
2018-03-19T21:27:44.618Z,25.20
2018-03-19T21:30:11.638Z,25.40
2018-03-19T21:32:38.785Z,25.40
2018-03-19T21:35:05.786Z,25.40
2018-03-19T21:37:32.799Z,25.40
2018-03-19T21:39:59.786Z,25.40
2018-03-19T21:42:27.604Z,25.30
2018-03-19T21:44:54.598Z,25.30
2018-03-19T21:47:22.153Z,25.20
2018-03-19T21:49:49.191Z,25.20
2018-03-19T21:52:16.185Z,25.20
2018-03-19T21:54:44.302Z,25.20
2018-03-19T21:57:11.298Z,25.20
2018-03-19T21:59:38.315Z,25.20
2018-03-19T22:02:06.234Z,25.10
2018-03-19T22:04:33.232Z,25.10
2018-03-19T22:07:00.274Z,25.10
2018-03-19T22:09:28.040Z,25.10
2018-03-19T22:11:55.855Z,25.10
2018-03-19T22:14:22.868Z,25.10
2018-03-19T22:16:49.872Z,25.10
2018-03-19T22:19:17.184Z,25.10
2018-03-19T22:21:44.311Z,25.10
2018-03-19T22:24:11.388Z,25.10
2018-03-19T22:26:38.537Z,25.00
2018-03-19T22:29:05.743Z,25.00
2018-03-19T22:31:32.715Z,25.00
2018-03-19T22:34:00.510Z,25.00
2018-03-19T22:36:27.521Z,25.00
2018-03-19T22:38:54.517Z,25.00
2018-03-19T22:41:21.513Z,25.00
2018-03-19T22:43:49.313Z,25.00
2018-03-19T22:46:16.336Z,25.00
2018-03-19T22:48:43.342Z,25.00
2018-03-19T22:51:10.348Z,25.00
2018-03-19T22:53:37.508Z,25.00
2018-03-19T22:56:04.943Z,25.00
2018-03-19T22:58:31.935Z,25.00
2018-03-19T23:00:58.930Z,25.00
2018-03-19T23:03:26.918Z,25.00
2018-03-19T23:05:53.908Z,25.00
2018-03-19T23:08:22.408Z,25.00
2018-03-19T23:10:49.421Z,25.40
2018-03-19T23:13:16.541Z,24.90
2018-03-19T23:15:43.535Z,24.90
2018-03-19T23:18:10.536Z,24.90
2018-03-19T23:20:37.549Z,24.90
2018-03-19T23:23:05.391Z,24.90
2018-03-19T23:25:32.885Z,24.90
2018-03-19T23:28:00.672Z,24.90
2018-03-19T23:30:27.693Z,24.90
2018-03-19T23:32:54.780Z,24.90
2018-03-19T23:35:21.806Z,24.80
2018-03-19T23:37:48.799Z,24.90
2018-03-19T23:40:15.802Z,24.80
2018-03-19T23:42:42.964Z,24.80
2018-03-19T23:45:10.005Z,24.80
2018-03-19T23:47:37.019Z,24.80
2018-03-19T23:50:04.038Z,24.80
2018-03-19T23:52:31.421Z,24.80
2018-03-19T23:54:59.196Z,24.80
2018-03-19T23:57:26.196Z,24.80
2018-03-19T23:59:53.188Z,24.80
